createdAt,value
2023-04-06T00:00:01.964Z,33.80
2023-04-06T00:10:02.000Z,33.60
2023-04-06T00:20:02.258Z,31.80
2023-04-06T00:30:01.526Z,30.10
2023-04-06T00:40:01.419Z,26.30
2023-04-06T00:50:01.339Z,29.20
2023-04-06T01:00:02.242Z,44.30
2023-04-06T01:10:03.417Z,30.90
2023-04-06T01:20:02.305Z,45.90
2023-04-06T01:30:01.625Z,29.90
2023-04-06T01:40:01.180Z,44.70
2023-04-06T01:50:00.329Z,41.20
2023-04-06T02:00:00.947Z,38.00
2023-04-06T02:10:00.877Z,48.30
2023-04-06T02:20:01.459Z,51.60
2023-04-06T02:30:02.188Z,39.60
2023-04-06T02:40:01.063Z,30.00
2023-04-06T02:50:02.069Z,40.20
2023-04-06T03:00:03.414Z,36.60
2023-04-06T03:10:01.333Z,47.20
2023-04-06T03:20:01.845Z,45.30
2023-04-06T03:30:04.137Z,44.20
2023-04-06T03:40:01.317Z,49.80
2023-04-06T03:50:01.059Z,32.60
2023-04-06T04:00:01.233Z,38.40
2023-04-06T04:10:01.222Z,53.40
2023-04-06T04:20:01.768Z,43.30
2023-04-06T04:30:00.303Z,51.80
2023-04-06T04:40:02.362Z,51.50
2023-04-06T04:50:02.001Z,52.50
2023-04-06T05:00:01.505Z,35.10
2023-04-06T05:10:01.114Z,36.50
2023-04-06T05:20:01.034Z,39.10
2023-04-06T05:30:02.410Z,47.60
2023-04-06T05:40:00.873Z,35.10
2023-04-06T05:50:02.091Z,38.70
2023-04-06T06:00:00.269Z,41.90
2023-04-06T06:10:01.998Z,27.40
2023-04-06T06:20:01.077Z,43.00
2023-04-06T06:30:02.251Z,26.90
2023-04-06T06:40:01.255Z,38.70
2023-04-06T06:50:01.159Z,32.60
2023-04-06T07:00:01.078Z,25.50
2023-04-06T07:10:01.440Z,36.70
2023-04-06T07:20:01.737Z,51.50
2023-04-06T07:30:01.511Z,53.60
2023-04-06T07:40:01.054Z,51.10
2023-04-06T07:50:01.031Z,56.60
2023-04-06T08:00:01.350Z,38.60
2023-04-06T08:10:02.099Z,46.40
2023-04-06T08:20:01.646Z,48.20
2023-04-06T08:30:03.465Z,50.30
2023-04-06T08:40:01.010Z,44.30
2023-04-06T08:50:04.434Z,54.30
2023-04-06T09:00:01.536Z,57.00
2023-04-06T09:10:01.067Z,48.90
2023-04-06T09:20:01.249Z,40.60
2023-04-06T09:30:02.328Z,49.80
2023-04-06T09:40:01.282Z,42.10
2023-04-06T09:50:01.499Z,67.60
2023-04-06T10:00:01.543Z,43.40
2023-04-06T10:10:02.163Z,48.00
2023-04-06T10:20:01.218Z,44.90
2023-04-06T10:30:01.602Z,57.30
2023-04-06T10:40:02.119Z,47.60
2023-04-06T10:50:01.041Z,61.70
2023-04-06T11:00:01.060Z,62.40
2023-04-06T11:10:14.420Z,232.90
2023-04-06T11:20:01.089Z,738.10
2023-04-06T11:30:01.010Z,704.40
2023-04-06T11:40:01.434Z,681.00
2023-04-06T11:50:01.103Z,652.00
2023-04-06T12:00:02.410Z,724.10
2023-04-06T12:10:01.064Z,658.10
2023-04-06T12:20:05.968Z,703.30
2023-04-06T12:30:01.213Z,656.60
2023-04-06T12:40:01.611Z,644.00
2023-04-06T12:50:01.381Z,636.20
2023-04-06T13:00:01.979Z,739.20
2023-04-06T13:10:01.455Z,676.10
2023-04-06T13:20:01.297Z,658.20
2023-04-06T13:40:03.647Z,709.50
2023-04-06T13:50:04.957Z,756.20
2023-04-06T14:00:02.067Z,718.90
2023-04-06T14:10:03.978Z,705.90
2023-04-06T14:20:01.288Z,707.50
2023-04-06T14:30:02.554Z,739.00
2023-04-06T14:40:01.352Z,735.80
2023-04-06T14:50:02.461Z,779.90
2023-04-06T15:10:01.534Z,743.60
2023-04-06T15:20:00.268Z,789.60
2023-04-06T15:30:01.029Z,842.30
2023-04-06T15:40:02.125Z,663.30
2023-04-06T15:50:02.979Z,649.30
2023-04-06T16:00:01.310Z,601.20
2023-04-06T16:10:01.389Z,420.10
2023-04-06T16:20:01.961Z,385.70
2023-04-06T16:40:01.332Z,199.20
2023-04-06T16:50:05.253Z,132.50
2023-04-06T17:00:01.326Z,181.70
2023-04-06T17:10:01.072Z,162.80
2023-04-06T17:20:01.872Z,93.50
2023-04-06T17:30:02.706Z,76.80
2023-04-06T17:40:01.938Z,83.60
2023-04-06T17:50:02.305Z,83.80
2023-04-06T18:00:01.468Z,52.40
2023-04-06T18:10:01.346Z,57.70
2023-04-06T18:20:02.171Z,74.60
2023-04-06T18:30:01.362Z,51.40
2023-04-06T18:40:01.030Z,90.70
2023-04-06T18:50:01.016Z,85.80
2023-04-06T19:00:02.002Z,45.60
2023-04-06T19:10:01.587Z,76.50
2023-04-06T19:20:03.584Z,73.60
2023-04-06T19:30:02.199Z,70.00
2023-04-06T19:40:01.549Z,52.60
2023-04-06T19:50:01.944Z,37.00
2023-04-06T20:00:01.223Z,32.60
2023-04-06T20:10:02.471Z,53.10
2023-04-06T20:20:01.908Z,52.50
2023-04-06T20:30:01.320Z,46.20
2023-04-06T20:40:01.090Z,49.50
2023-04-06T20:50:00.309Z,45.30
2023-04-06T21:00:03.916Z,37.50
2023-04-06T21:10:01.629Z,58.40
2023-04-06T21:20:02.142Z,34.50
2023-04-06T21:30:01.163Z,36.30
2023-04-06T21:40:01.299Z,45.50
2023-04-06T21:50:01.093Z,34.40
2023-04-06T22:00:01.482Z,48.70
2023-04-06T22:10:02.162Z,33.30
2023-04-06T22:20:02.620Z,46.60
2023-04-06T22:30:02.183Z,55.70
2023-04-06T22:40:01.345Z,52.50
2023-04-06T22:50:01.562Z,47.80
2023-04-06T23:00:01.242Z,49.50
2023-04-06T23:10:01.425Z,58.70
2023-04-06T23:20:00.268Z,51.60
2023-04-06T23:30:02.569Z,53.10
2023-04-06T23:40:01.012Z,47.50
2023-04-06T23:50:01.073Z,41.60
